sensor_id;sensor_type;location;lat;lon;timestamp;P1;durP1;ratioP1;P2;durP2;ratioP2
22284;SDS011;11311;52.192;20.900;2022-10-18T00:01:14;16.40;;;12.13;;
22284;SDS011;11311;52.192;20.900;2022-10-18T00:03:43;14.63;;;10.55;;
22284;SDS011;11311;52.192;20.900;2022-10-18T00:06:12;16.27;;;10.48;;
22284;SDS011;11311;52.192;20.900;2022-10-18T00:08:42;17.38;;;10.77;;
22284;SDS011;11311;52.192;20.900;2022-10-18T00:11:10;14.27;;;11.00;;
22284;SDS011;11311;52.192;20.900;2022-10-18T00:13:39;12.48;;;10.88;;
22284;SDS011;11311;52.192;20.900;2022-10-18T00:16:09;13.77;;;10.48;;
22284;SDS011;11311;52.192;20.900;2022-10-18T00:18:39;13.07;;;10.70;;
22284;SDS011;11311;52.192;20.900;2022-10-18T00:21:09;14.05;;;10.38;;
22284;SDS011;11311;52.192;20.900;2022-10-18T00:23:39;15.52;;;10.50;;
22284;SDS011;11311;52.192;20.900;2022-10-18T00:26:10;13.07;;;10.23;;
22284;SDS011;11311;52.192;20.900;2022-10-18T00:28:40;13.45;;;10.35;;
22284;SDS011;11311;52.192;20.900;2022-10-18T00:31:10;14.75;;;9.88;;
22284;SDS011;11311;52.192;20.900;2022-10-18T00:33:40;17.25;;;10.55;;
22284;SDS011;11311;52.192;20.900;2022-10-18T00:36:09;15.18;;;10.20;;
22284;SDS011;11311;52.192;20.900;2022-10-18T00:38:39;15.05;;;9.27;;
22284;SDS011;11311;52.192;20.900;2022-10-18T00:41:10;16.98;;;10.05;;
22284;SDS011;11311;52.192;20.900;2022-10-18T00:43:50;9.68;;;8.57;;
22284;SDS011;11311;52.192;20.900;2022-10-18T00:46:20;13.77;;;9.65;;
22284;SDS011;11311;52.192;20.900;2022-10-18T00:48:49;15.40;;;9.68;;
22284;SDS011;11311;52.192;20.900;2022-10-18T00:51:20;14.20;;;9.30;;
22284;SDS011;11311;52.192;20.900;2022-10-18T00:53:49;14.30;;;9.73;;
22284;SDS011;11311;52.192;20.900;2022-10-18T00:56:19;15.80;;;9.38;;
22284;SDS011;11311;52.192;20.900;2022-10-18T00:58:48;12.95;;;9.50;;
22284;SDS011;11311;52.192;20.900;2022-10-18T01:01:18;14.60;;;9.75;;
22284;SDS011;11311;52.192;20.900;2022-10-18T01:03:53;14.35;;;10.05;;
22284;SDS011;11311;52.192;20.900;2022-10-18T01:06:22;12.80;;;9.60;;
22284;SDS011;11311;52.192;20.900;2022-10-18T01:09:01;15.48;;;10.10;;
22284;SDS011;11311;52.192;20.900;2022-10-18T01:11:43;12.55;;;9.65;;
22284;SDS011;11311;52.192;20.900;2022-10-18T01:14:27;13.18;;;8.77;;
22284;SDS011;11311;52.192;20.900;2022-10-18T01:17:04;11.70;;;9.32;;
22284;SDS011;11311;52.192;20.900;2022-10-18T01:22:47;11.30;;;7.90;;
22284;SDS011;11311;52.192;20.900;2022-10-18T01:25:24;16.40;;;8.23;;
22284;SDS011;11311;52.192;20.900;2022-10-18T01:28:03;17.10;;;9.18;;
22284;SDS011;11311;52.192;20.900;2022-10-18T01:30:40;11.15;;;8.55;;
22284;SDS011;11311;52.192;20.900;2022-10-18T01:33:19;10.93;;;8.30;;
22284;SDS011;11311;52.192;20.900;2022-10-18T01:35:58;14.25;;;9.55;;
22284;SDS011;11311;52.192;20.900;2022-10-18T01:38:29;15.75;;;9.25;;
22284;SDS011;11311;52.192;20.900;2022-10-18T01:40:59;12.52;;;9.23;;
22284;SDS011;11311;52.192;20.900;2022-10-18T01:43:29;12.15;;;8.23;;
22284;SDS011;11311;52.192;20.900;2022-10-18T01:46:00;10.82;;;8.85;;
22284;SDS011;11311;52.192;20.900;2022-10-18T01:48:30;13.18;;;8.90;;
22284;SDS011;11311;52.192;20.900;2022-10-18T01:50:59;16.40;;;9.15;;
22284;SDS011;11311;52.192;20.900;2022-10-18T01:53:29;13.13;;;8.70;;
22284;SDS011;11311;52.192;20.900;2022-10-18T01:56:09;11.25;;;9.43;;
22284;SDS011;11311;52.192;20.900;2022-10-18T01:58:56;14.15;;;8.88;;
22284;SDS011;11311;52.192;20.900;2022-10-18T02:01:36;13.13;;;8.55;;
22284;SDS011;11311;52.192;20.900;2022-10-18T02:04:12;12.70;;;8.18;;
22284;SDS011;11311;52.192;20.900;2022-10-18T02:06:50;11.95;;;8.93;;
22284;SDS011;11311;52.192;20.900;2022-10-18T02:09:23;12.38;;;8.25;;
22284;SDS011;11311;52.192;20.900;2022-10-18T02:11:57;14.38;;;8.10;;
22284;SDS011;11311;52.192;20.900;2022-10-18T02:14:26;13.98;;;8.32;;
22284;SDS011;11311;52.192;20.900;2022-10-18T02:16:57;10.35;;;8.73;;
22284;SDS011;11311;52.192;20.900;2022-10-18T02:19:28;10.70;;;8.05;;
22284;SDS011;11311;52.192;20.900;2022-10-18T02:21:58;10.85;;;8.88;;
22284;SDS011;11311;52.192;20.900;2022-10-18T02:24:29;11.18;;;8.10;;
22284;SDS011;11311;52.192;20.900;2022-10-18T02:27:02;10.63;;;7.45;;
22284;SDS011;11311;52.192;20.900;2022-10-18T02:29:31;11.88;;;7.80;;
22284;SDS011;11311;52.192;20.900;2022-10-18T02:32:03;12.60;;;7.28;;
22284;SDS011;11311;52.192;20.900;2022-10-18T02:34:34;14.20;;;8.27;;
22284;SDS011;11311;52.192;20.900;2022-10-18T02:37:05;13.70;;;8.00;;
22284;SDS011;11311;52.192;20.900;2022-10-18T02:39:35;13.25;;;8.55;;
22284;SDS011;11311;52.192;20.900;2022-10-18T02:44:34;11.25;;;7.93;;
22284;SDS011;11311;52.192;20.900;2022-10-18T02:47:06;10.30;;;7.50;;
22284;SDS011;11311;52.192;20.900;2022-10-18T02:49:35;14.95;;;7.57;;
22284;SDS011;11311;52.192;20.900;2022-10-18T02:52:04;13.38;;;8.10;;
22284;SDS011;11311;52.192;20.900;2022-10-18T02:54:33;11.98;;;8.55;;
22284;SDS011;11311;52.192;20.900;2022-10-18T02:57:01;16.52;;;8.32;;
22284;SDS011;11311;52.192;20.900;2022-10-18T02:59:30;13.27;;;8.43;;
22284;SDS011;11311;52.192;20.900;2022-10-18T03:01:59;17.23;;;7.45;;
22284;SDS011;11311;52.192;20.900;2022-10-18T03:04:28;13.85;;;8.05;;
22284;SDS011;11311;52.192;20.900;2022-10-18T03:06:57;10.00;;;8.02;;
22284;SDS011;11311;52.192;20.900;2022-10-18T03:09:26;9.57;;;7.25;;
22284;SDS011;11311;52.192;20.900;2022-10-18T03:11:54;9.95;;;8.48;;
22284;SDS011;11311;52.192;20.900;2022-10-18T03:14:24;12.80;;;7.60;;
22284;SDS011;11311;52.192;20.900;2022-10-18T03:16:52;13.48;;;8.88;;
22284;SDS011;11311;52.192;20.900;2022-10-18T03:19:21;13.15;;;8.50;;
22284;SDS011;11311;52.192;20.900;2022-10-18T03:21:51;11.88;;;8.75;;
22284;SDS011;11311;52.192;20.900;2022-10-18T03:24:20;13.25;;;8.25;;
22284;SDS011;11311;52.192;20.900;2022-10-18T03:26:49;14.30;;;8.38;;
22284;SDS011;11311;52.192;20.900;2022-10-18T03:29:17;14.50;;;8.02;;
22284;SDS011;11311;52.192;20.900;2022-10-18T03:31:47;17.48;;;8.52;;
22284;SDS011;11311;52.192;20.900;2022-10-18T03:34:17;10.57;;;7.55;;
22284;SDS011;11311;52.192;20.900;2022-10-18T03:36:45;12.93;;;8.40;;
22284;SDS011;11311;52.192;20.900;2022-10-18T03:39:16;9.30;;;7.90;;
22284;SDS011;11311;52.192;20.900;2022-10-18T03:41:44;10.18;;;8.57;;
22284;SDS011;11311;52.192;20.900;2022-10-18T03:44:13;14.30;;;8.20;;
22284;SDS011;11311;52.192;20.900;2022-10-18T03:46:41;13.13;;;7.97;;
22284;SDS011;11311;52.192;20.900;2022-10-18T03:49:10;13.27;;;8.07;;
22284;SDS011;11311;52.192;20.900;2022-10-18T03:51:38;8.30;;;6.80;;
22284;SDS011;11311;52.192;20.900;2022-10-18T03:54:07;15.57;;;7.88;;
22284;SDS011;11311;52.192;20.900;2022-10-18T03:56:39;8.48;;;6.80;;
22284;SDS011;11311;52.192;20.900;2022-10-18T03:59:07;10.73;;;7.88;;
22284;SDS011;11311;52.192;20.900;2022-10-18T04:01:36;9.70;;;7.75;;
22284;SDS011;11311;52.192;20.900;2022-10-18T04:04:05;11.35;;;7.45;;
22284;SDS011;11311;52.192;20.900;2022-10-18T04:06:33;15.35;;;6.88;;
22284;SDS011;11311;52.192;20.900;2022-10-18T04:09:02;11.50;;;7.47;;
22284;SDS011;11311;52.192;20.900;2022-10-18T04:11:36;12.63;;;7.53;;
22284;SDS011;11311;52.192;20.900;2022-10-18T04:14:06;11.45;;;7.07;;
22284;SDS011;11311;52.192;20.900;2022-10-18T04:16:35;11.13;;;7.07;;
22284;SDS011;11311;52.192;20.900;2022-10-18T04:19:03;13.68;;;7.65;;
22284;SDS011;11311;52.192;20.900;2022-10-18T04:21:32;8.70;;;7.10;;
22284;SDS011;11311;52.192;20.900;2022-10-18T04:24:01;14.77;;;7.68;;
22284;SDS011;11311;52.192;20.900;2022-10-18T04:26:29;17.83;;;8.27;;
22284;SDS011;11311;52.192;20.900;2022-10-18T04:28:58;9.48;;;8.18;;
22284;SDS011;11311;52.192;20.900;2022-10-18T04:31:28;11.82;;;7.90;;
22284;SDS011;11311;52.192;20.900;2022-10-18T04:33:57;10.75;;;7.97;;
22284;SDS011;11311;52.192;20.900;2022-10-18T04:36:25;14.13;;;8.20;;
22284;SDS011;11311;52.192;20.900;2022-10-18T04:38:54;15.93;;;7.95;;
22284;SDS011;11311;52.192;20.900;2022-10-18T04:41:23;22.73;;;7.72;;
22284;SDS011;11311;52.192;20.900;2022-10-18T04:43:52;11.70;;;8.40;;
22284;SDS011;11311;52.192;20.900;2022-10-18T04:46:21;10.90;;;7.30;;
22284;SDS011;11311;52.192;20.900;2022-10-18T04:48:52;12.30;;;8.50;;
22284;SDS011;11311;52.192;20.900;2022-10-18T04:51:21;9.63;;;7.95;;
22284;SDS011;11311;52.192;20.900;2022-10-18T04:53:49;17.02;;;7.40;;
22284;SDS011;11311;52.192;20.900;2022-10-18T04:56:18;11.35;;;7.53;;
22284;SDS011;11311;52.192;20.900;2022-10-18T04:58:46;12.23;;;7.47;;
22284;SDS011;11311;52.192;20.900;2022-10-18T05:01:15;14.40;;;7.60;;
22284;SDS011;11311;52.192;20.900;2022-10-18T05:03:45;16.23;;;8.02;;
22284;SDS011;11311;52.192;20.900;2022-10-18T05:06:15;10.98;;;7.90;;
22284;SDS011;11311;52.192;20.900;2022-10-18T05:11:13;10.13;;;8.18;;
22284;SDS011;11311;52.192;20.900;2022-10-18T05:13:42;12.13;;;7.07;;
22284;SDS011;11311;52.192;20.900;2022-10-18T05:16:16;16.42;;;8.65;;
22284;SDS011;11311;52.192;20.900;2022-10-18T05:18:44;17.30;;;8.13;;
22284;SDS011;11311;52.192;20.900;2022-10-18T05:21:14;11.70;;;8.20;;
22284;SDS011;11311;52.192;20.900;2022-10-18T05:23:43;12.95;;;8.02;;
22284;SDS011;11311;52.192;20.900;2022-10-18T05:26:12;23.92;;;8.20;;
22284;SDS011;11311;52.192;20.900;2022-10-18T05:28:41;20.40;;;9.82;;
22284;SDS011;11311;52.192;20.900;2022-10-18T05:31:09;19.90;;;9.38;;
22284;SDS011;11311;52.192;20.900;2022-10-18T05:33:38;18.30;;;9.02;;
22284;SDS011;11311;52.192;20.900;2022-10-18T05:36:07;19.00;;;8.30;;
22284;SDS011;11311;52.192;20.900;2022-10-18T05:38:38;13.68;;;9.25;;
22284;SDS011;11311;52.192;20.900;2022-10-18T05:41:09;20.63;;;8.85;;
22284;SDS011;11311;52.192;20.900;2022-10-18T05:43:38;14.45;;;8.70;;
22284;SDS011;11311;52.192;20.900;2022-10-18T05:46:07;17.00;;;8.70;;
22284;SDS011;11311;52.192;20.900;2022-10-18T05:48:41;20.30;;;9.27;;
22284;SDS011;11311;52.192;20.900;2022-10-18T05:51:10;17.60;;;9.55;;
22284;SDS011;11311;52.192;20.900;2022-10-18T05:53:40;18.38;;;9.32;;
22284;SDS011;11311;52.192;20.900;2022-10-18T05:56:09;16.35;;;8.77;;
22284;SDS011;11311;52.192;20.900;2022-10-18T05:58:38;21.63;;;10.55;;
22284;SDS011;11311;52.192;20.900;2022-10-18T06:01:08;13.35;;;8.73;;
22284;SDS011;11311;52.192;20.900;2022-10-18T06:03:37;23.98;;;9.55;;
22284;SDS011;11311;52.192;20.900;2022-10-18T06:06:07;13.98;;;8.73;;
22284;SDS011;11311;52.192;20.900;2022-10-18T06:08:37;23.05;;;8.65;;
22284;SDS011;11311;52.192;20.900;2022-10-18T06:11:09;14.85;;;9.90;;
22284;SDS011;11311;52.192;20.900;2022-10-18T06:13:39;13.05;;;8.65;;
22284;SDS011;11311;52.192;20.900;2022-10-18T06:16:09;16.67;;;8.77;;
22284;SDS011;11311;52.192;20.900;2022-10-18T06:18:39;17.98;;;8.13;;
22284;SDS011;11311;52.192;20.900;2022-10-18T06:21:08;24.55;;;9.05;;
22284;SDS011;11311;52.192;20.900;2022-10-18T06:23:39;15.15;;;7.93;;
22284;SDS011;11311;52.192;20.900;2022-10-18T06:26:09;11.97;;;8.87;;
22284;SDS011;11311;52.192;20.900;2022-10-18T06:28:38;19.13;;;9.35;;
22284;SDS011;11311;52.192;20.900;2022-10-18T06:31:07;21.77;;;8.32;;
22284;SDS011;11311;52.192;20.900;2022-10-18T06:33:37;20.77;;;8.35;;
22284;SDS011;11311;52.192;20.900;2022-10-18T06:36:07;13.40;;;8.13;;
22284;SDS011;11311;52.192;20.900;2022-10-18T06:38:38;19.63;;;8.27;;
22284;SDS011;11311;52.192;20.900;2022-10-18T06:41:07;12.60;;;8.63;;
22284;SDS011;11311;52.192;20.900;2022-10-18T06:43:38;13.73;;;8.63;;
22284;SDS011;11311;52.192;20.900;2022-10-18T06:46:07;18.40;;;8.70;;
22284;SDS011;11311;52.192;20.900;2022-10-18T06:48:37;10.70;;;8.05;;
22284;SDS011;11311;52.192;20.900;2022-10-18T06:51:06;16.83;;;8.55;;
22284;SDS011;11311;52.192;20.900;2022-10-18T06:53:37;10.13;;;8.63;;
22284;SDS011;11311;52.192;20.900;2022-10-18T06:56:19;17.08;;;9.43;;
22284;SDS011;11311;52.192;20.900;2022-10-18T06:58:49;13.70;;;7.82;;
22284;SDS011;11311;52.192;20.900;2022-10-18T07:01:18;14.15;;;9.18;;
22284;SDS011;11311;52.192;20.900;2022-10-18T07:03:47;15.38;;;9.18;;
22284;SDS011;11311;52.192;20.900;2022-10-18T07:06:17;18.67;;;8.43;;
22284;SDS011;11311;52.192;20.900;2022-10-18T07:08:47;12.03;;;8.87;;
22284;SDS011;11311;52.192;20.900;2022-10-18T07:11:16;12.33;;;8.87;;
22284;SDS011;11311;52.192;20.900;2022-10-18T07:13:46;15.80;;;8.10;;
22284;SDS011;11311;52.192;20.900;2022-10-18T07:16:17;14.00;;;8.02;;
22284;SDS011;11311;52.192;20.900;2022-10-18T07:18:47;19.02;;;7.78;;
22284;SDS011;11311;52.192;20.900;2022-10-18T07:21:17;14.00;;;7.95;;
22284;SDS011;11311;52.192;20.900;2022-10-18T07:23:48;13.25;;;8.07;;
22284;SDS011;11311;52.192;20.900;2022-10-18T07:26:18;12.18;;;8.65;;
22284;SDS011;11311;52.192;20.900;2022-10-18T07:28:48;15.20;;;8.32;;
22284;SDS011;11311;52.192;20.900;2022-10-18T07:31:21;16.60;;;8.18;;
22284;SDS011;11311;52.192;20.900;2022-10-18T07:33:50;13.32;;;9.57;;
22284;SDS011;11311;52.192;20.900;2022-10-18T07:36:20;19.90;;;8.85;;
22284;SDS011;11311;52.192;20.900;2022-10-18T07:38:48;17.23;;;9.88;;
22284;SDS011;11311;52.192;20.900;2022-10-18T07:41:19;19.40;;;9.70;;
22284;SDS011;11311;52.192;20.900;2022-10-18T07:43:48;16.85;;;9.60;;
22284;SDS011;11311;52.192;20.900;2022-10-18T07:48:48;18.77;;;9.75;;
22284;SDS011;11311;52.192;20.900;2022-10-18T07:51:17;26.25;;;11.48;;
22284;SDS011;11311;52.192;20.900;2022-10-18T07:53:46;18.10;;;10.48;;
22284;SDS011;11311;52.192;20.900;2022-10-18T07:56:16;16.67;;;10.38;;
22284;SDS011;11311;52.192;20.900;2022-10-18T07:58:47;16.38;;;9.07;;
22284;SDS011;11311;52.192;20.900;2022-10-18T08:01:18;20.42;;;9.95;;
22284;SDS011;11311;52.192;20.900;2022-10-18T08:03:49;15.23;;;9.80;;
22284;SDS011;11311;52.192;20.900;2022-10-18T08:06:19;17.35;;;9.95;;
22284;SDS011;11311;52.192;20.900;2022-10-18T08:08:49;20.17;;;9.45;;
22284;SDS011;11311;52.192;20.900;2022-10-18T08:11:18;13.57;;;9.80;;
22284;SDS011;11311;52.192;20.900;2022-10-18T08:13:47;16.83;;;9.63;;
22284;SDS011;11311;52.192;20.900;2022-10-18T08:16:17;15.60;;;9.73;;
22284;SDS011;11311;52.192;20.900;2022-10-18T08:18:46;15.35;;;9.65;;
22284;SDS011;11311;52.192;20.900;2022-10-18T08:23:46;17.17;;;9.38;;
22284;SDS011;11311;52.192;20.900;2022-10-18T08:28:44;18.92;;;9.38;;
22284;SDS011;11311;52.192;20.900;2022-10-18T08:31:29;18.40;;;10.93;;
22284;SDS011;11311;52.192;20.900;2022-10-18T08:34:00;17.70;;;10.35;;
22284;SDS011;11311;52.192;20.900;2022-10-18T08:39:00;18.63;;;10.48;;
22284;SDS011;11311;52.192;20.900;2022-10-18T08:44:26;14.38;;;9.15;;
22284;SDS011;11311;52.192;20.900;2022-10-18T08:46:57;13.82;;;11.18;;
22284;SDS011;11311;52.192;20.900;2022-10-18T08:49:35;16.98;;;10.18;;
22284;SDS011;11311;52.192;20.900;2022-10-18T08:52:14;14.63;;;9.45;;
22284;SDS011;11311;52.192;20.900;2022-10-18T08:54:50;15.38;;;9.27;;
22284;SDS011;11311;52.192;20.900;2022-10-18T08:57:21;14.52;;;10.25;;
22284;SDS011;11311;52.192;20.900;2022-10-18T08:59:51;22.48;;;11.95;;
22284;SDS011;11311;52.192;20.900;2022-10-18T09:02:24;15.50;;;10.13;;
22284;SDS011;11311;52.192;20.900;2022-10-18T09:05:04;15.35;;;9.68;;
22284;SDS011;11311;52.192;20.900;2022-10-18T09:07:52;15.10;;;10.70;;
22284;SDS011;11311;52.192;20.900;2022-10-18T09:10:41;14.68;;;10.02;;
22284;SDS011;11311;52.192;20.900;2022-10-18T09:13:19;13.90;;;10.82;;
22284;SDS011;11311;52.192;20.900;2022-10-18T09:16:02;15.82;;;11.45;;
22284;SDS011;11311;52.192;20.900;2022-10-18T09:21:06;15.70;;;12.20;;
22284;SDS011;11311;52.192;20.900;2022-10-18T09:23:45;14.25;;;11.32;;
22284;SDS011;11311;52.192;20.900;2022-10-18T09:26:15;18.65;;;10.77;;
22284;SDS011;11311;52.192;20.900;2022-10-18T09:28:55;13.82;;;11.18;;
22284;SDS011;11311;52.192;20.900;2022-10-18T09:31:31;17.13;;;10.73;;
22284;SDS011;11311;52.192;20.900;2022-10-18T09:34:08;28.95;;;11.90;;
22284;SDS011;11311;52.192;20.900;2022-10-18T09:36:40;16.55;;;11.27;;
22284;SDS011;11311;52.192;20.900;2022-10-18T09:39:10;26.08;;;12.23;;
22284;SDS011;11311;52.192;20.900;2022-10-18T09:41:40;14.73;;;12.57;;
22284;SDS011;11311;52.192;20.900;2022-10-18T09:44:13;22.50;;;11.63;;
22284;SDS011;11311;52.192;20.900;2022-10-18T09:46:44;14.57;;;12.20;;
22284;SDS011;11311;52.192;20.900;2022-10-18T09:49:15;18.40;;;11.27;;
22284;SDS011;11311;52.192;20.900;2022-10-18T09:51:48;18.15;;;12.20;;
22284;SDS011;11311;52.192;20.900;2022-10-18T09:54:23;22.48;;;11.82;;
22284;SDS011;11311;52.192;20.900;2022-10-18T09:56:56;13.95;;;12.00;;
22284;SDS011;11311;52.192;20.900;2022-10-18T09:59:35;17.73;;;11.02;;
22284;SDS011;11311;52.192;20.900;2022-10-18T10:02:05;21.95;;;11.88;;
22284;SDS011;11311;52.192;20.900;2022-10-18T10:04:37;16.05;;;12.32;;
22284;SDS011;11311;52.192;20.900;2022-10-18T10:07:12;13.07;;;11.77;;
22284;SDS011;11311;52.192;20.900;2022-10-18T10:09:45;16.10;;;11.88;;
22284;SDS011;11311;52.192;20.900;2022-10-18T10:12:25;17.25;;;13.65;;
22284;SDS011;11311;52.192;20.900;2022-10-18T10:15:05;15.93;;;11.82;;
22284;SDS011;11311;52.192;20.900;2022-10-18T10:17:36;13.32;;;11.98;;
22284;SDS011;11311;52.192;20.900;2022-10-18T10:20:13;22.08;;;12.65;;
22284;SDS011;11311;52.192;20.900;2022-10-18T10:22:44;15.43;;;12.10;;
22284;SDS011;11311;52.192;20.900;2022-10-18T10:25:18;18.98;;;11.75;;
22284;SDS011;11311;52.192;20.900;2022-10-18T10:27:48;16.52;;;14.13;;
22284;SDS011;11311;52.192;20.900;2022-10-18T10:30:22;14.90;;;13.25;;
22284;SDS011;11311;52.192;20.900;2022-10-18T10:32:53;21.70;;;14.30;;
22284;SDS011;11311;52.192;20.900;2022-10-18T10:35:32;19.33;;;12.23;;
22284;SDS011;11311;52.192;20.900;2022-10-18T10:38:23;20.00;;;14.52;;
22284;SDS011;11311;52.192;20.900;2022-10-18T10:40:53;21.20;;;14.48;;
22284;SDS011;11311;52.192;20.900;2022-10-18T10:43:23;19.33;;;12.98;;
22284;SDS011;11311;52.192;20.900;2022-10-18T10:46:09;22.02;;;14.30;;
22284;SDS011;11311;52.192;20.900;2022-10-18T10:48:40;19.65;;;12.75;;
22284;SDS011;11311;52.192;20.900;2022-10-18T10:51:15;19.73;;;13.98;;
22284;SDS011;11311;52.192;20.900;2022-10-18T10:53:48;27.30;;;14.07;;
22284;SDS011;11311;52.192;20.900;2022-10-18T10:56:23;39.13;;;15.85;;
22284;SDS011;11311;52.192;20.900;2022-10-18T10:58:53;26.63;;;14.73;;
22284;SDS011;11311;52.192;20.900;2022-10-18T11:01:25;18.55;;;14.88;;
22284;SDS011;11311;52.192;20.900;2022-10-18T11:03:58;19.80;;;15.20;;
22284;SDS011;11311;52.192;20.900;2022-10-18T11:06:30;26.17;;;14.52;;
22284;SDS011;11311;52.192;20.900;2022-10-18T11:09:14;18.42;;;13.85;;
22284;SDS011;11311;52.192;20.900;2022-10-18T11:11:52;22.17;;;14.80;;
22284;SDS011;11311;52.192;20.900;2022-10-18T11:14:25;35.55;;;16.35;;
22284;SDS011;11311;52.192;20.900;2022-10-18T11:16:58;25.85;;;14.98;;
22284;SDS011;11311;52.192;20.900;2022-10-18T11:19:37;21.27;;;15.60;;
22284;SDS011;11311;52.192;20.900;2022-10-18T11:22:08;23.95;;;15.13;;
22284;SDS011;11311;52.192;20.900;2022-10-18T11:24:41;32.35;;;16.60;;
22284;SDS011;11311;52.192;20.900;2022-10-18T11:27:12;21.55;;;15.40;;
22284;SDS011;11311;52.192;20.900;2022-10-18T11:29:48;20.77;;;16.75;;
22284;SDS011;11311;52.192;20.900;2022-10-18T11:32:37;19.80;;;16.10;;
22284;SDS011;11311;52.192;20.900;2022-10-18T11:36:13;20.70;;;16.73;;
22284;SDS011;11311;52.192;20.900;2022-10-18T11:38:45;21.08;;;17.88;;
22284;SDS011;11311;52.192;20.900;2022-10-18T11:41:27;17.13;;;15.27;;
22284;SDS011;11311;52.192;20.900;2022-10-18T11:43:58;22.50;;;16.88;;
22284;SDS011;11311;52.192;20.900;2022-10-18T11:46:32;24.60;;;16.90;;
22284;SDS011;11311;52.192;20.900;2022-10-18T11:52:14;25.65;;;17.15;;
22284;SDS011;11311;52.192;20.900;2022-10-18T11:54:54;20.73;;;16.27;;
22284;SDS011;11311;52.192;20.900;2022-10-18T11:57:32;23.33;;;17.05;;
22284;SDS011;11311;52.192;20.900;2022-10-18T12:00:14;23.88;;;15.32;;
22284;SDS011;11311;52.192;20.900;2022-10-18T12:02:53;26.15;;;18.13;;
22284;SDS011;11311;52.192;20.900;2022-10-18T12:05:27;26.75;;;19.65;;
22284;SDS011;11311;52.192;20.900;2022-10-18T12:08:04;24.77;;;18.15;;
22284;SDS011;11311;52.192;20.900;2022-10-18T12:10:35;22.80;;;18.02;;
22284;SDS011;11311;52.192;20.900;2022-10-18T12:13:26;20.90;;;17.77;;
22284;SDS011;11311;52.192;20.900;2022-10-18T12:16:01;22.45;;;16.33;;
22284;SDS011;11311;52.192;20.900;2022-10-18T12:18:31;21.15;;;16.58;;
22284;SDS011;11311;52.192;20.900;2022-10-18T12:21:01;19.50;;;17.55;;
22284;SDS011;11311;52.192;20.900;2022-10-18T12:23:37;28.50;;;16.83;;
22284;SDS011;11311;52.192;20.900;2022-10-18T12:26:08;18.80;;;16.05;;
22284;SDS011;11311;52.192;20.900;2022-10-18T12:28:42;27.85;;;18.23;;
22284;SDS011;11311;52.192;20.900;2022-10-18T12:31:17;21.33;;;17.55;;
22284;SDS011;11311;52.192;20.900;2022-10-18T12:33:50;25.08;;;18.92;;
22284;SDS011;11311;52.192;20.900;2022-10-18T12:36:29;29.75;;;19.23;;
22284;SDS011;11311;52.192;20.900;2022-10-18T12:39:14;23.50;;;18.63;;
22284;SDS011;11311;52.192;20.900;2022-10-18T12:42:04;22.85;;;18.65;;
22284;SDS011;11311;52.192;20.900;2022-10-18T12:44:41;21.23;;;18.33;;
22284;SDS011;11311;52.192;20.900;2022-10-18T12:47:17;26.30;;;18.58;;
22284;SDS011;11311;52.192;20.900;2022-10-18T12:49:54;25.80;;;19.02;;
22284;SDS011;11311;52.192;20.900;2022-10-18T12:52:24;23.90;;;19.52;;
22284;SDS011;11311;52.192;20.900;2022-10-18T12:58:01;29.65;;;20.27;;
22284;SDS011;11311;52.192;20.900;2022-10-18T13:00:51;30.23;;;21.25;;
22284;SDS011;11311;52.192;20.900;2022-10-18T13:03:49;31.90;;;20.10;;
22284;SDS011;11311;52.192;20.900;2022-10-18T13:06:21;32.97;;;23.10;;
22284;SDS011;11311;52.192;20.900;2022-10-18T13:11:46;28.05;;;21.83;;
22284;SDS011;11311;52.192;20.900;2022-10-18T13:14:27;25.50;;;22.08;;
22284;SDS011;11311;52.192;20.900;2022-10-18T13:17:34;40.20;;;21.73;;
22284;SDS011;11311;52.192;20.900;2022-10-18T13:20:10;31.30;;;21.98;;
22284;SDS011;11311;52.192;20.900;2022-10-18T13:22:57;26.55;;;20.75;;
22284;SDS011;11311;52.192;20.900;2022-10-18T13:25:37;26.67;;;19.77;;
22284;SDS011;11311;52.192;20.900;2022-10-18T13:28:22;24.15;;;20.30;;
22284;SDS011;11311;52.192;20.900;2022-10-18T13:30:56;23.63;;;21.05;;
22284;SDS011;11311;52.192;20.900;2022-10-18T13:33:30;27.08;;;19.92;;
22284;SDS011;11311;52.192;20.900;2022-10-18T13:36:01;32.70;;;21.13;;
22284;SDS011;11311;52.192;20.900;2022-10-18T13:38:44;36.08;;;19.48;;
22284;SDS011;11311;52.192;20.900;2022-10-18T13:41:15;30.33;;;20.05;;
22284;SDS011;11311;52.192;20.900;2022-10-18T13:47:10;32.35;;;21.40;;
22284;SDS011;11311;52.192;20.900;2022-10-18T13:49:47;24.15;;;20.85;;
22284;SDS011;11311;52.192;20.900;2022-10-18T13:52:27;23.50;;;20.95;;
22284;SDS011;11311;52.192;20.900;2022-10-18T13:55:05;25.45;;;19.77;;
22284;SDS011;11311;52.192;20.900;2022-10-18T13:57:50;28.23;;;21.85;;
22284;SDS011;11311;52.192;20.900;2022-10-18T14:00:32;37.20;;;22.08;;
22284;SDS011;11311;52.192;20.900;2022-10-18T14:03:11;30.80;;;23.75;;
22284;SDS011;11311;52.192;20.900;2022-10-18T14:06:05;29.13;;;22.83;;
22284;SDS011;11311;52.192;20.900;2022-10-18T14:08:37;39.78;;;22.42;;
22284;SDS011;11311;52.192;20.900;2022-10-18T14:11:11;28.60;;;21.00;;
22284;SDS011;11311;52.192;20.900;2022-10-18T14:13:46;34.95;;;22.33;;
22284;SDS011;11311;52.192;20.900;2022-10-18T14:16:22;34.25;;;21.45;;
22284;SDS011;11311;52.192;20.900;2022-10-18T14:18:57;27.37;;;20.47;;
22284;SDS011;11311;52.192;20.900;2022-10-18T14:21:33;22.30;;;19.88;;
22284;SDS011;11311;52.192;20.900;2022-10-18T14:24:08;29.65;;;22.52;;
22284;SDS011;11311;52.192;20.900;2022-10-18T14:26:42;28.58;;;22.58;;
22284;SDS011;11311;52.192;20.900;2022-10-18T14:29:15;30.85;;;22.42;;
22284;SDS011;11311;52.192;20.900;2022-10-18T14:31:52;24.58;;;21.80;;
22284;SDS011;11311;52.192;20.900;2022-10-18T14:34:22;25.88;;;21.50;;
22284;SDS011;11311;52.192;20.900;2022-10-18T14:36:51;30.38;;;21.73;;
22284;SDS011;11311;52.192;20.900;2022-10-18T14:39:20;28.35;;;22.52;;
22284;SDS011;11311;52.192;20.900;2022-10-18T14:41:53;29.05;;;22.67;;
22284;SDS011;11311;52.192;20.900;2022-10-18T14:44:24;26.45;;;20.25;;
22284;SDS011;11311;52.192;20.900;2022-10-18T14:46:59;30.58;;;22.73;;
22284;SDS011;11311;52.192;20.900;2022-10-18T14:49:29;34.60;;;23.50;;
22284;SDS011;11311;52.192;20.900;2022-10-18T14:51:58;32.03;;;22.25;;
22284;SDS011;11311;52.192;20.900;2022-10-18T14:54:28;29.08;;;21.67;;
22284;SDS011;11311;52.192;20.900;2022-10-18T14:56:58;32.15;;;21.38;;
22284;SDS011;11311;52.192;20.900;2022-10-18T14:59:29;38.22;;;20.58;;
22284;SDS011;11311;52.192;20.900;2022-10-18T15:02:01;26.40;;;21.70;;
22284;SDS011;11311;52.192;20.900;2022-10-18T15:04:33;32.80;;;22.70;;
22284;SDS011;11311;52.192;20.900;2022-10-18T15:07:02;26.77;;;22.50;;
22284;SDS011;11311;52.192;20.900;2022-10-18T15:09:33;32.92;;;22.13;;
22284;SDS011;11311;52.192;20.900;2022-10-18T15:12:03;27.73;;;22.65;;
22284;SDS011;11311;52.192;20.900;2022-10-18T15:14:33;27.42;;;23.00;;
22284;SDS011;11311;52.192;20.900;2022-10-18T15:17:06;28.80;;;23.35;;
22284;SDS011;11311;52.192;20.900;2022-10-18T15:19:35;31.90;;;22.98;;
22284;SDS011;11311;52.192;20.900;2022-10-18T15:22:08;29.05;;;25.27;;
22284;SDS011;11311;52.192;20.900;2022-10-18T15:25:14;34.97;;;26.38;;